Terminal Aerodrome Forecast
Issued by NWS Albany, NY

Home | Current Version | Previous Version | Text Only | Print | Product List | Glossary On
Versions: 1 2 3 4 5 6 7 8 9 10 11 12 13 14 15 16 17
254
FTUS41 KALY 010526
TAFPOU
TAF
KPOU 010526Z 0106/0206 00000KT P6SM FEW250
     FM011200 03004KT P6SM SCT050
     FM011800 12004KT P6SM SCT060
     FM020000 VRB02KT P6SM SCT050 SCT250=

USA.gov is the U.S. government's official web portal to all federal, state and local government web resources and services.